Time;durP1;ratioP1;P1;durP2;ratioP2;P2;SDS_P1;SDS_P2;PMS_P1;PMS_P2;Temp;Humidity;BMP_temperature;BMP_pressure;BME280_temperature;BME280_humidity;BME280_pressure;Samples;Min_cycle;Max_cycle;Signal;HPM_P1;HPM_P2
2022/09/09 00:00:16;;;;;;;;;;;16.60;99.90;;;;;;4954913;28;19927;-87
2022/09/09 00:02:46;;;;;;;;;;;16.60;99.90;;;;;;4954683;28;20402;-87
2022/09/09 00:05:18;;;;;;;;;;;16.60;99.90;;;;;;4954813;28;20344;-87
2022/09/09 00:07:48;;;;;;;;;;;16.70;99.90;;;;;;4954568;28;20411;-87
2022/09/09 00:10:19;;;;;;;;;;;16.70;99.90;;;;;;4954415;28;19930;-88
2022/09/09 00:12:52;;;;;;;;;;;16.70;99.90;;;;;;4955966;28;19930;-88
2022/09/09 00:15:20;;;;;;;;;;;16.60;99.90;;;;;;4954817;28;19926;-88
2022/09/09 00:17:49;;;;;;;;;;;16.70;99.90;;;;;;4954482;28;19932;-87
2022/09/09 00:20:18;;;;;;;;;;;16.70;99.90;;;;;;4954695;28;20343;-88
2022/09/09 00:22:48;;;;;;;;;;;16.70;99.90;;;;;;4954932;28;19930;-87
2022/09/09 00:25:21;;;;;;;;;;;16.70;99.90;;;;;;4957187;28;19983;-87
2022/09/09 00:27:49;;;;;;;;;;;16.70;99.90;;;;;;4957859;28;20036;-87
2022/09/09 00:30:19;;;;;;;;;;;16.70;99.90;;;;;;4958199;28;20348;-87
2022/09/09 00:32:46;;;;;;;;;;;16.70;99.90;;;;;;4958877;28;19926;-87
2022/09/09 00:35:17;;;;;;;;;;;16.70;99.90;;;;;;4958215;28;20355;-88
2022/09/09 00:37:45;;;;;;;;;;;16.60;99.90;;;;;;4958577;28;20347;-88
2022/09/09 00:40:19;;;;;;;;;;;16.70;99.90;;;;;;4958464;28;19926;-87
2022/09/09 00:42:50;;;;;;;;;;;16.60;99.90;;;;;;4958443;28;19927;-87
2022/09/09 00:45:28;;;;;;;;;;;16.50;99.90;;;;;;4958000;28;19990;-87
2022/09/09 00:47:56;;;;;;;12.95;11.68;;;16.50;99.90;;;;;;4957010;28;20475;-87
2022/09/09 00:50:35;;;;;;;;;;;16.40;99.90;;;;;;4957958;28;20727;-87
2022/09/09 00:53:14;;;;;;;17.63;14.32;;;16.30;99.90;;;;;;4956918;28;20831;-87
2022/09/09 00:55:49;;;;;;;6.22;5.82;;;16.30;99.90;;;;;;4957347;28;20188;-87
2022/09/09 00:58:17;;;;;;;;;;;16.20;99.90;;;;;;4958215;28;20187;-87
2022/09/09 01:00:48;;;;;;;18.17;14.38;;;16.10;99.90;;;;;;4956458;28;20433;-88
2022/09/09 01:03:30;;;;;;;;;;;16.10;99.90;;;;;;4957868;28;20184;-87
2022/09/09 01:06:12;;;;;;;27.17;17.75;;;16.00;99.90;;;;;;4956611;28;20493;-87
2022/09/09 01:09:06;;;;;;;15.18;13.38;;;15.90;99.90;;;;;;4957747;28;20188;-87
2022/09/09 01:11:43;;;;;;;15.00;13.30;;;15.90;99.90;;;;;;4957398;28;20212;-87
2022/09/09 01:14:21;;;;;;;12.70;11.70;;;15.80;99.90;;;;;;4957762;28;20232;-88
2022/09/09 01:16:48;;;;;;;;;;;15.80;99.90;;;;;;4957881;28;20555;-87
2022/09/09 01:19:25;;;;;;;17.80;14.25;;;15.80;99.90;;;;;;4956172;28;20947;-87
2022/09/09 01:22:01;;;;;;;12.63;11.52;;;15.80;99.90;;;;;;4957403;28;20239;-86
2022/09/09 01:24:32;;;;;;;13.00;11.80;;;15.80;99.90;;;;;;4957634;28;20207;-87
2022/09/09 01:27:03;;;;;;;13.00;11.82;;;15.80;99.90;;;;;;4957479;28;20247;-87
2022/09/09 01:29:30;;;;;;;9.63;8.93;;;15.80;99.90;;;;;;4957777;28;20184;-88
2022/09/09 01:31:58;;;;;;;;;;;15.80;99.90;;;;;;4957528;28;20636;-88
2022/09/09 01:34:28;;;;;;;23.30;16.02;;;15.80;99.90;;;;;;4956176;28;20433;-87
2022/09/09 01:37:00;;;;;;;12.23;11.20;;;15.80;99.90;;;;;;4955794;28;20200;-87
2022/09/09 01:39:27;;;;;;;38.08;18.60;;;15.80;99.90;;;;;;4957164;28;20184;-87
2022/09/09 01:41:55;;;;;;;45.65;22.35;;;15.80;99.90;;;;;;4956838;28;20204;-87
2022/09/09 01:44:26;;;;;;;37.00;24.00;;;15.80;99.90;;;;;;4957341;28;20195;-88
2022/09/09 01:46:53;;;;;;;31.35;19.20;;;15.80;99.90;;;;;;4956932;28;20657;-87
2022/09/09 01:49:20;;;;;;;;;;;15.80;99.90;;;;;;4957173;28;20200;-89
2022/09/09 01:51:49;;;;;;;;;;;15.80;99.90;;;;;;4957095;28;19977;-87
2022/09/09 01:54:16;;;;;;;;;;;15.80;99.90;;;;;;4957022;28;19969;-87
2022/09/09 01:56:48;;;;;;;;;;;15.70;99.90;;;;;;4957032;28;19922;-87
2022/09/09 01:59:30;;;;;;;;;;;15.70;99.90;;;;;;4956656;28;19922;-87
2022/09/09 02:02:09;;;;;;;25.42;16.83;;;15.60;99.90;;;;;;4955657;28;20748;-88
2022/09/09 02:04:40;;;;;;;;;;;15.60;99.90;;;;;;4956957;28;20577;-87
2022/09/09 02:07:10;;;;;;;;;;;15.50;99.90;;;;;;4956786;28;19922;-87
2022/09/09 02:09:37;;;;;;;;;;;15.50;99.90;;;;;;4956459;28;19922;-87
2022/09/09 02:12:12;;;;;;;20.50;15.02;;;15.40;99.90;;;;;;4955372;28;20449;-87
2022/09/09 02:14:42;;;;;;;;;;;15.40;99.90;;;;;;4956635;28;20277;-87
2022/09/09 02:17:10;;;;;;;;;;;15.30;99.90;;;;;;4956385;28;20368;-88
2022/09/09 02:19:42;;;;;;;15.38;13.20;;;15.30;99.90;;;;;;4956092;28;20477;-87
2022/09/09 02:22:09;;;;;;;;;;;15.20;99.90;;;;;;4956761;28;20188;-87
2022/09/09 02:24:39;;;;;;;15.60;13.30;;;15.20;99.90;;;;;;4955201;28;20426;-87
2022/09/09 02:27:08;;;;;;;;;;;15.10;99.90;;;;;;4956323;28;20538;-87
2022/09/09 02:29:41;;;;;;;18.40;14.13;;;15.00;99.90;;;;;;4954659;28;20791;-87
2022/09/09 02:32:15;;;;;;;13.93;12.50;;;14.90;99.90;;;;;;4956045;28;20316;-88
2022/09/09 02:34:46;;;;;;;14.77;13.38;;;14.80;99.90;;;;;;4956094;28;20267;-88
2022/09/09 02:37:14;;;;;;;11.73;10.82;;;14.70;99.90;;;;;;4956104;28;20629;-87
2022/09/09 02:39:41;;;;;;;;;;;14.60;99.90;;;;;;4955917;28;20247;-87
2022/09/09 02:42:09;;;;;;;93.82;30.55;;;14.60;99.90;;;;;;4955183;28;20425;-88
2022/09/09 02:44:37;;;;;;;64.07;26.10;;;14.50;99.90;;;;;;4955704;28;20196;-87
2022/09/09 02:47:17;;;;;;;70.85;26.95;;;14.40;99.90;;;;;;4955291;28;20604;-87
2022/09/09 02:49:52;;;;;;;76.75;27.85;;;14.40;99.90;;;;;;4955691;28;20234;-88
2022/09/09 02:52:24;;;;;;;18.02;15.90;;;14.30;99.90;;;;;;4955521;28;20278;-87
2022/09/09 02:54:55;;;;;;;48.90;23.83;;;14.30;99.90;;;;;;4955174;28;20227;-87
2022/09/09 02:57:27;;;;;;;73.78;27.17;;;14.20;99.90;;;;;;4955114;28;20256;-86
2022/09/09 02:59:57;;;;;;;70.05;26.88;;;14.20;99.90;;;;;;4955640;28;20247;-88
2022/09/09 03:02:26;;;;;;;49.92;23.25;;;14.20;99.90;;;;;;4954057;28;20605;-87
2022/09/09 03:04:53;;;;;;;45.22;22.40;;;14.20;99.90;;;;;;4955474;28;20693;-87
2022/09/09 03:07:21;;;;;;;52.88;23.67;;;14.20;99.90;;;;;;4955115;28;20208;-87
2022/09/09 03:09:48;;;;;;;58.03;24.65;;;14.20;99.90;;;;;;4955393;28;20255;-87
2022/09/09 03:12:16;;;;;;;67.35;26.35;;;14.20;99.90;;;;;;4953059;28;20219;-87
2022/09/09 03:14:43;;;;;;;65.40;26.23;;;14.20;99.90;;;;;;4954362;28;20672;-87
2022/09/09 03:17:10;;;;;;;56.25;24.75;;;14.20;99.90;;;;;;4953370;28;20219;-87
2022/09/09 03:19:39;;;;;;;47.78;22.80;;;14.20;99.90;;;;;;4954412;28;20192;-87
2022/09/09 03:22:06;;;;;;;44.85;22.23;;;14.20;99.90;;;;;;4954464;28;20676;-86
2022/09/09 03:24:33;;;;;;;51.08;23.50;;;14.20;99.90;;;;;;4954497;28;20234;-87
2022/09/09 03:27:01;;;;;;;46.08;23.02;;;14.20;99.90;;;;;;4954886;28;20258;-87
2022/09/09 03:29:28;;;;;;;62.25;25.58;;;14.20;99.90;;;;;;4953914;28;20709;-87
2022/09/09 03:31:54;;;;;;;63.85;25.92;;;14.20;99.90;;;;;;4954526;28;20224;-87
2022/09/09 03:34:21;;;;;;;68.47;26.77;;;14.30;99.90;;;;;;4954682;28;20271;-87
2022/09/09 03:36:50;;;;;;;77.32;27.70;;;14.30;99.90;;;;;;4954627;28;20557;-87
2022/09/09 03:39:17;;;;;;;76.45;28.05;;;14.40;99.90;;;;;;4955255;28;20235;-88
2022/09/09 03:41:47;;;;;;;71.90;27.00;;;14.40;99.90;;;;;;4954811;28;20200;-86
2022/09/09 03:44:14;;;;;;;136.70;63.90;;;14.50;99.90;;;;;;4954477;28;20199;-87
2022/09/09 03:46:41;;;;;;;68.15;28.42;;;14.50;99.90;;;;;;4954562;28;20232;-87
2022/09/09 03:49:08;;;;;;;82.35;28.40;;;14.50;99.90;;;;;;4954818;28;20266;-86
2022/09/09 03:51:36;;;;;;;81.80;27.15;;;14.50;99.90;;;;;;4954294;28;20620;-87
2022/09/09 03:54:08;;;;;;;62.65;24.48;;;14.60;99.90;;;;;;4954847;28;20204;-86
2022/09/09 03:56:35;;;;;;;60.58;24.13;;;14.60;99.90;;;;;;4953839;28;20223;-87
2022/09/09 03:59:02;;;;;;;57.92;23.50;;;14.60;99.90;;;;;;4953663;28;20295;-87
2022/09/09 04:01:29;;;;;;;64.45;24.45;;;14.50;99.90;;;;;;4954375;28;20250;-86
2022/09/09 04:03:58;;;;;;;60.60;24.00;;;14.60;99.90;;;;;;4953272;28;20645;-87
2022/09/09 04:06:25;;;;;;;58.28;23.95;;;14.50;99.90;;;;;;4953920;28;20720;-87
2022/09/09 04:08:53;;;;;;;56.88;23.77;;;14.50;99.90;;;;;;4953861;28;20271;-86
2022/09/09 04:11:21;;;;;;;55.60;23.55;;;14.50;99.90;;;;;;4953759;28;20251;-87
2022/09/09 04:13:49;;;;;;;60.55;24.38;;;14.50;99.90;;;;;;4954061;28;20204;-86
2022/09/09 04:16:16;;;;;;;53.33;23.23;;;14.50;99.90;;;;;;4954413;28;20199;-87
2022/09/09 04:18:43;;;;;;;49.63;22.48;;;14.40;99.90;;;;;;4954562;28;20249;-87
2022/09/09 04:21:12;;;;;;;48.35;22.10;;;14.40;99.90;;;;;;4954469;28;20204;-87
2022/09/09 04:23:39;;;;;;;46.45;21.55;;;14.40;99.90;;;;;;4954502;28;20252;-87
2022/09/09 04:26:07;;;;;;;47.10;21.73;;;14.40;99.90;;;;;;4953883;28;20196;-86
2022/09/09 04:28:37;;;;;;;45.45;21.40;;;14.40;99.90;;;;;;4954596;28;20251;-88
2022/09/09 04:31:08;;;;;;;46.17;21.58;;;14.40;99.90;;;;;;4953996;28;20578;-87
2022/09/09 04:33:36;;;;;;;43.97;20.88;;;14.40;99.90;;;;;;4954552;28;20196;-87
2022/09/09 04:36:03;;;;;;;44.38;21.10;;;14.40;99.90;;;;;;4954497;28;20212;-87
2022/09/09 04:38:30;;;;;;;44.40;21.23;;;14.30;99.90;;;;;;4954214;28;20255;-87
2022/09/09 04:40:58;;;;;;;48.63;22.15;;;14.40;99.90;;;;;;4954343;28;20200;-87
2022/09/09 04:43:30;;;;;;;45.20;21.38;;;14.40;99.90;;;;;;4953890;28;20203;-87
2022/09/09 04:45:59;;;;;;;48.83;22.20;;;14.40;99.90;;;;;;4954237;28;20199;-86
2022/09/09 04:48:27;;;;;;;51.53;22.77;;;14.40;99.90;;;;;;4952949;28;20701;-86
2022/09/09 04:50:59;;;;;;;51.70;22.92;;;14.40;99.90;;;;;;4952326;28;20720;-87
2022/09/09 04:53:27;;;;;;;48.83;22.13;;;14.40;99.90;;;;;;4951988;28;20192;-86
2022/09/09 04:56:02;;;;;;;55.60;23.70;;;14.50;99.90;;;;;;4952224;28;20298;-87
2022/09/09 04:58:30;;;;;;;51.50;23.02;;;14.40;99.90;;;;;;4948456;29;20184;-87
2022/09/09 05:01:05;;;;;;;52.05;23.00;;;14.50;99.90;;;;;;4951163;29;20661;-86
2022/09/09 05:03:32;;;;;;;50.20;22.73;;;14.50;99.90;;;;;;4951682;28;20227;-88
2022/09/09 05:06:05;;;;;;;49.45;22.63;;;14.60;99.90;;;;;;4952127;28;20196;-87
2022/09/09 05:08:32;;;;;;;41.67;20.95;;;14.70;99.90;;;;;;4952733;28;20279;-87
2022/09/09 05:11:00;;;;;;;63.53;25.17;;;14.70;99.90;;;;;;4955611;28;20226;-87
2022/09/09 05:13:27;;;;;;;67.25;25.77;;;14.70;99.90;;;;;;4956839;28;20211;-88
2022/09/09 05:15:54;;;;;;;60.13;25.00;;;14.80;99.90;;;;;;4947008;29;20204;-87
2022/09/09 05:18:23;;;;;;;61.60;25.05;;;14.90;99.90;;;;;;4957146;28;20196;-88
2022/09/09 05:20:50;;;;;;;65.05;25.65;;;14.90;99.90;;;;;;4957265;28;20645;-88
2022/09/09 05:23:17;;;;;;;61.80;24.95;;;15.00;99.90;;;;;;4957463;28;20283;-88
2022/09/09 05:25:46;;;;;;;62.38;25.10;;;15.10;99.90;;;;;;4957704;28;20259;-87
2022/09/09 05:28:13;;;;;;;62.45;25.08;;;15.10;99.90;;;;;;4957224;28;20192;-87
2022/09/09 05:30:40;;;;;;;61.80;24.95;;;15.20;99.90;;;;;;4957216;28;20192;-87
2022/09/09 05:33:09;;;;;;;57.38;24.05;;;15.20;99.90;;;;;;4956743;28;20258;-88
2022/09/09 05:35:37;;;;;;;54.25;23.52;;;15.30;99.90;;;;;;4957503;28;20196;-88
2022/09/09 05:38:04;;;;;;;55.25;23.65;;;15.40;99.90;;;;;;4957654;28;20204;-88
2022/09/09 05:40:31;;;;;;;50.63;22.90;;;15.40;99.90;;;;;;4957316;28;20247;-87
2022/09/09 05:43:01;;;;;;;49.88;22.80;;;15.40;99.90;;;;;;4957442;28;20551;-87
2022/09/09 05:45:29;;;;;;;49.05;22.45;;;15.50;99.90;;;;;;4957318;28;20210;-88
2022/09/09 05:47:55;;;;;;;49.00;22.85;;;15.50;99.90;;;;;;4956833;28;20575;-87
2022/09/09 05:50:22;;;;;;;48.85;22.67;;;15.50;99.90;;;;;;4956629;28;20613;-88
2022/09/09 05:52:51;;;;;;;46.17;22.13;;;15.60;99.90;;;;;;4957048;28;20219;-87
2022/09/09 05:55:18;;;;;;;46.17;22.02;;;15.60;99.90;;;;;;4956561;28;20657;-88
2022/09/09 05:57:51;;;;;;;45.58;22.02;;;15.70;99.90;;;;;;4956455;28;20643;-87
2022/09/09 06:00:19;;;;;;;45.35;22.02;;;15.80;99.90;;;;;;4956849;28;20195;-87
2022/09/09 06:02:52;;;;;;;41.97;21.23;;;15.90;99.90;;;;;;4956634;28;20207;-88
2022/09/09 06:05:19;;;;;;;42.10;21.40;;;16.10;99.90;;;;;;4956899;28;20266;-87
2022/09/09 06:07:46;;;;;;;39.00;20.52;;;16.20;99.90;;;;;;4956319;28;20247;-87
2022/09/09 06:10:15;;;;;;;39.55;20.70;;;16.20;99.90;;;;;;4956774;28;20259;-87
2022/09/09 06:12:42;;;;;;;36.25;19.98;;;16.20;99.90;;;;;;4956435;28;20279;-88
2022/09/09 06:15:10;;;;;;;37.60;20.30;;;16.30;99.90;;;;;;4956953;28;20192;-88
2022/09/09 06:17:38;;;;;;;43.85;21.80;;;16.40;99.90;;;;;;4956461;28;20647;-87
2022/09/09 06:20:06;;;;;;;40.00;20.85;;;16.50;99.90;;;;;;4956502;28;20256;-88
2022/09/09 06:22:33;;;;;;;39.25;20.67;;;16.50;99.90;;;;;;4955486;28;20661;-88
2022/09/09 06:25:01;;;;;;;43.70;21.70;;;16.50;99.90;;;;;;4956621;28;20668;-88
2022/09/09 06:27:30;;;;;;;49.97;22.80;;;16.40;99.90;;;;;;4956128;28;20204;-88
2022/09/09 06:29:56;;;;;;;48.37;22.53;;;16.50;99.90;;;;;;4956426;28;20204;-87
2022/09/09 06:32:23;;;;;;;50.97;23.15;;;16.60;99.90;;;;;;4956247;28;20219;-88
2022/09/09 06:34:51;;;;;;;52.17;23.35;;;16.70;99.90;;;;;;4956044;28;20196;-88
2022/09/09 06:37:18;;;;;;;51.83;23.37;;;16.80;99.90;;;;;;4956505;28;20259;-88
2022/09/09 06:39:45;;;;;;;54.63;24.00;;;16.90;99.90;;;;;;4956231;28;20290;-88
2022/09/09 06:42:12;;;;;;;;;;;17.00;99.90;;;;;;4956674;28;20239;-88
2022/09/09 06:44:40;;;;;;;;;;;17.10;99.90;;;;;;4956622;28;20114;-88
2022/09/09 06:47:07;;;;;;;50.40;23.05;;;17.20;99.90;;;;;;4956432;28;20059;-88
2022/09/09 06:49:34;;;;;;;55.10;23.90;;;17.50;99.90;;;;;;4955859;28;20190;-88
2022/09/09 06:52:02;;;;;;;59.53;24.55;;;17.60;99.90;;;;;;4955607;28;20767;-88
2022/09/09 06:54:29;;;;;;;61.63;25.17;;;17.70;99.90;;;;;;4956039;28;20251;-88
2022/09/09 06:56:56;;;;;;;62.13;25.30;;;17.70;99.90;;;;;;4955957;28;20239;-88
2022/09/09 06:59:23;;;;;;;62.28;25.15;;;17.60;99.90;;;;;;4956041;28;20648;-88
2022/09/09 07:01:54;;;;;;;61.50;25.17;;;17.60;99.90;;;;;;4956048;28;20200;-89
2022/09/09 07:04:21;;;;;;;60.63;25.13;;;17.50;99.90;;;;;;4955504;28;20185;-87
2022/09/09 07:06:48;;;;;;;59.40;24.85;;;17.60;99.90;;;;;;4955367;28;20204;-89
2022/09/09 07:09:16;;;;;;;58.67;24.67;;;17.70;99.90;;;;;;4955415;28;20243;-89
2022/09/09 07:11:45;;;;;;;55.92;24.02;;;17.70;99.90;;;;;;4955661;28;20199;-88
2022/09/09 07:14:13;;;;;;;66.82;25.98;;;17.70;99.90;;;;;;4955933;28;20603;-89
2022/09/09 07:16:41;;;;;;;59.17;24.50;;;17.80;99.90;;;;;;4956080;28;20192;-88
2022/09/09 07:19:11;;;;;;;69.03;26.00;;;17.80;99.90;;;;;;4955284;28;20550;-88
2022/09/09 07:21:38;;;;;;;65.63;25.75;;;17.80;99.90;;;;;;4955238;28;20550;-88
2022/09/09 07:24:07;;;;;;;63.95;25.65;;;17.70;99.90;;;;;;4955404;28;20208;-89
2022/09/09 07:26:35;;;;;;;68.15;26.30;;;17.70;99.90;;;;;;4955467;28;20200;-88
2022/09/09 07:29:02;;;;;;;58.70;24.70;;;17.70;99.90;;;;;;4955305;28;20680;-88
2022/09/09 07:31:31;;;;;;;60.00;24.83;;;17.90;99.90;;;;;;4955047;28;20698;-89
2022/09/09 07:33:59;;;;;;;62.03;25.23;;;18.20;99.90;;;;;;4954205;28;20220;-88
2022/09/09 07:36:29;;;;;;;66.90;25.88;;;18.60;99.90;;;;;;4955305;28;20208;-88
2022/09/09 07:38:58;;;;;;;70.55;26.90;;;18.60;99.90;;;;;;4955283;28;20239;-88
2022/09/09 07:41:27;;;;;;;76.57;27.67;;;18.60;99.90;;;;;;4955186;28;20259;-88
2022/09/09 07:43:55;;;;;;;84.35;30.25;;;18.50;99.90;;;;;;4955228;28;20195;-88
2022/09/09 07:46:24;;;;;;;86.50;54.00;;;18.50;99.90;;;;;;4955053;28;20193;-88
2022/09/09 07:48:53;;;;;;;485.30;250.50;;;18.80;99.90;;;;;;4955224;28;20248;-88
2022/09/09 07:51:22;;;;;;;;;;;19.40;99.90;;;;;;4955404;28;20050;-88
2022/09/09 07:53:52;;;;;;;;;;;20.50;99.90;;;;;;4955286;28;19922;-88
2022/09/09 07:56:21;;;;;;;;;;;21.20;99.90;;;;;;4955087;28;19970;-88
2022/09/09 07:58:48;;;;;;;;;;;21.40;99.90;;;;;;4955079;28;19922;-88
2022/09/09 08:01:16;;;;;;;;;;;21.40;99.90;;;;;;4955312;28;19973;-87
2022/09/09 08:03:44;;;;;;;;;;;21.20;99.90;;;;;;4955229;28;19930;-87
2022/09/09 08:06:11;;;;;;;;;;;20.90;99.90;;;;;;4954921;28;19922;-88
2022/09/09 08:08:38;;;;;;;;;;;20.80;99.90;;;;;;4954955;28;19926;-87
2022/09/09 08:11:08;;;;;;;;;;;20.90;99.90;;;;;;4954561;28;19993;-87
2022/09/09 08:13:35;;;;;;;;;;;21.30;99.90;;;;;;4954816;28;19973;-87
2022/09/09 08:16:06;;;;;;;;;;;21.40;99.90;;;;;;4954845;28;19969;-87
2022/09/09 08:18:33;;;;;;;;;;;21.30;99.90;;;;;;4954778;28;19968;-87
2022/09/09 08:21:05;;;;;;;;;;;21.30;99.90;;;;;;4954781;28;19993;-87
2022/09/09 08:23:32;;;;;;;;;;;21.30;99.90;;;;;;4954923;28;20051;-86
2022/09/09 08:26:04;;;;;;;;;;;21.70;99.90;;;;;;4954449;28;20025;-86
2022/09/09 08:28:32;;;;;;;;;;;22.50;99.90;;;;;;4954551;28;20308;-87
2022/09/09 08:31:05;;;;;;;;;;;23.30;99.90;;;;;;4954272;28;19923;-87
2022/09/09 08:33:32;;;;;;;;;;;23.90;8.10;;;;;;4954317;28;19950;-86
2022/09/09 08:35:59;;;;;;;121.07;34.22;;;24.60;1.00;;;;;;4953885;28;20028;-86
2022/09/09 08:38:26;;;;;;;114.50;33.08;;;24.90;1.00;;;;;;4953915;28;20549;-85
2022/09/09 08:41:05;;;;;;;114.20;33.33;;;24.90;1.00;;;;;;4953873;28;20720;-85
2022/09/09 08:43:35;;;;;;;118.40;33.47;;;24.70;1.00;;;;;;4953862;28;20198;-86
2022/09/09 08:46:10;;;;;;;120.28;33.92;;;24.70;7.30;;;;;;4956215;28;20197;-85
2022/09/09 08:48:50;;;;;;;115.93;32.92;;;24.80;1.00;;;;;;4957716;28;20585;-85
2022/09/09 08:51:17;;;;;;;114.78;32.78;;;24.60;1.00;;;;;;4957832;28;20556;-85
2022/09/09 08:53:48;;;;;;;114.80;32.90;;;24.30;1.00;;;;;;4957908;28;20218;-85
2022/09/09 08:56:19;;;;;;;112.72;32.63;;;24.10;1.00;;;;;;4958013;28;20307;-85
2022/09/09 08:58:50;;;;;;;113.47;32.92;;;23.80;99.90;;;;;;4957439;28;20204;-85
2022/09/09 09:01:41;;;;;;;113.05;32.70;;;23.70;1.00;;;;;;4957589;28;20619;-85
2022/09/09 09:04:22;;;;;;;110.97;32.38;;;23.70;99.90;;;;;;4957729;28;20155;-86
2022/09/09 09:06:54;;;;;;;;;;;23.60;99.90;;;;;;4958049;28;20069;-84
2022/09/09 09:09:27;;;;;;;115.95;32.90;;;23.50;1.00;;;;;;4957279;28;20261;-85
2022/09/09 09:12:00;;;;;;;113.47;33.15;;;23.90;99.90;;;;;;4957225;28;20609;-86
2022/09/09 09:14:30;;;;;;;118.22;33.65;;;24.00;99.90;;;;;;4957115;28;20732;-86
2022/09/09 09:17:00;;;;;;;120.60;33.60;;;24.20;99.90;;;;;;4957408;28;20195;-85
2022/09/09 09:19:28;;;;;;;;;;;24.90;1.00;;;;;;4957589;28;20224;-85
2022/09/09 09:22:02;;;;;;;135.43;35.97;;;25.70;99.90;;;;;;4957264;28;20221;-86
2022/09/09 09:24:34;;;;;;;;;;;26.30;1.00;;;;;;4957392;28;20059;-86
2022/09/09 09:27:08;;;;;;;;;;;26.90;1.00;;;;;;4957308;28;19968;-86
2022/09/09 09:29:37;;;;;;;153.77;37.90;;;27.40;17.00;;;;;;4957259;28;20205;-85
2022/09/09 09:32:05;;;;;;;149.40;36.70;;;27.80;99.90;;;;;;4957061;28;20602;-85
2022/09/09 09:34:32;;;;;;;144.05;35.72;;;27.60;1.00;;;;;;4956686;28;20223;-85
2022/09/09 09:37:01;;;;;;;;;;;27.10;99.90;;;;;;4957458;28;20043;-85
2022/09/09 09:39:29;;;;;;;;;;;26.80;1.00;;;;;;4957398;28;19922;-86
2022/09/09 09:41:57;;;;;;;127.07;34.65;;;26.50;1.00;;;;;;4956668;28;20608;-86
2022/09/09 09:44:27;;;;;;;122.32;33.83;;;26.50;99.90;;;;;;4956544;28;20202;-85
2022/09/09 09:47:07;;;;;;;113.97;33.20;;;26.70;1.00;;;;;;4956817;28;20184;-85
2022/09/09 09:49:34;;;;;;;;;;;26.60;1.00;;;;;;4957300;28;20102;-86
2022/09/09 09:52:02;;;;;;;121.35;34.53;;;26.40;99.90;;;;;;4956799;28;20193;-85
2022/09/09 09:54:32;;;;;;;112.38;33.13;;;26.30;1.00;;;;;;4956301;28;20249;-85
2022/09/09 09:57:10;;;;;;;110.30;32.55;;;26.30;1.00;;;;;;4955122;28;20282;-85
2022/09/09 09:59:39;;;;;;;122.38;33.65;;;26.40;99.90;;;;;;4956349;28;20192;-85
2022/09/09 10:02:20;;;;;;;133.05;34.65;;;26.40;1.00;;;;;;4956622;28;20261;-85
2022/09/09 10:04:48;;;;;;;118.88;33.30;;;26.40;1.00;;;;;;4956494;28;20198;-86
2022/09/09 10:07:18;;;;;;;;;;;26.30;1.00;;;;;;4956784;28;20202;-85
2022/09/09 10:09:46;;;;;;;114.90;32.92;;;26.20;99.90;;;;;;4956535;28;20063;-86
2022/09/09 10:12:25;;;;;;;108.20;31.90;;;26.00;99.90;;;;;;4956379;28;20259;-86
2022/09/09 10:14:59;;;;;;;94.63;30.58;;;25.70;1.00;;;;;;4956564;28;20213;-85
2022/09/09 10:17:36;;;;;;;103.43;31.45;;;25.40;1.00;;;;;;4956527;28;20184;-85
2022/09/09 10:20:20;;;;;;;88.53;30.27;;;25.00;99.90;;;;;;4955990;28;20598;-85
2022/09/09 10:22:52;;;;;;;69.07;27.30;;;24.70;29.50;;;;;;4956227;28;20255;-85
2022/09/09 10:25:32;;;;;;;78.28;28.98;;;24.30;17.50;;;;;;4956484;28;20236;-85
2022/09/09 10:28:40;;;;;;;80.38;29.30;;;24.20;99.90;;;;;;4956317;28;20196;-85
2022/09/09 10:31:22;;;;;;;83.18;29.42;;;24.10;99.90;;;;;;4932581;28;20231;-87
2022/09/09 10:33:59;;;;;;;85.72;29.70;;;24.00;1.00;;;;;;4955784;28;20628;-86
2022/09/09 10:36:28;;;;;;;86.15;29.92;;;24.00;99.90;;;;;;4956064;28;20588;-85
2022/09/09 10:39:00;;;;;;;86.85;30.02;;;23.90;1.00;;;;;;4956059;28;20256;-85
2022/09/09 10:41:45;;;;;;;85.25;30.02;;;23.90;99.90;;;;;;4956061;28;20197;-86
2022/09/09 10:44:43;;;;;;;83.53;29.60;;;23.80;45.90;;;;;;4955590;28;20231;-86
2022/09/09 10:47:29;;;;;;;85.15;29.95;;;23.80;1.00;;;;;;4947706;28;20255;-85
2022/09/09 10:50:16;;;;;;;85.85;30.05;;;23.90;99.90;;;;;;4955539;28;20188;-86
2022/09/09 10:52:54;;;;;;;86.32;30.25;;;24.10;1.00;;;;;;4955769;28;20612;-85
2022/09/09 10:55:27;;;;;;;85.72;29.80;;;24.20;99.90;;;;;;4955494;28;20597;-86
2022/09/09 10:57:57;;;;;;;90.07;30.63;;;24.20;1.00;;;;;;4955327;28;20280;-85
2022/09/09 11:00:27;;;;;;;91.22;30.40;;;24.20;1.00;;;;;;4955497;28;20656;-86
2022/09/09 11:02:57;;;;;;;92.35;30.73;;;24.20;1.00;;;;;;4955676;28;20329;-86
2022/09/09 11:05:30;;;;;;;90.55;30.40;;;24.30;1.00;;;;;;4955424;28;20618;-86
2022/09/09 11:08:02;;;;;;;89.90;30.30;;;24.40;99.90;;;;;;4955199;28;20193;-86
2022/09/09 11:10:35;;;;;;;91.35;30.27;;;24.50;99.90;;;;;;4955580;28;20213;-86
2022/09/09 11:13:08;;;;;;;91.82;30.55;;;24.60;98.30;;;;;;4955285;28;20241;-86
2022/09/09 11:15:41;;;;;;;91.05;30.38;;;24.60;1.00;;;;;;4955338;28;20194;-86
2022/09/09 11:18:14;;;;;;;91.32;30.65;;;24.60;1.00;;;;;;4954950;28;20225;-86
2022/09/09 11:20:44;;;;;;;91.47;30.58;;;24.70;1.00;;;;;;4954976;28;20641;-86
2022/09/09 11:23:16;;;;;;;91.10;30.33;;;24.70;1.00;;;;;;4955438;28;20198;-86
2022/09/09 11:25:47;;;;;;;92.38;30.73;;;24.80;1.00;;;;;;4955147;28;20251;-86
2022/09/09 11:28:29;;;;;;;92.32;30.65;;;24.80;99.90;;;;;;4955050;28;20585;-86
2022/09/09 11:31:13;;;;;;;92.78;30.40;;;24.60;1.00;;;;;;4954906;28;20193;-86
2022/09/09 11:34:03;;;;;;;91.63;30.50;;;24.60;1.00;;;;;;4955021;28;20737;-86
2022/09/09 11:36:54;;;;;;;89.28;29.77;;;24.40;1.00;;;;;;4954675;28;20590;-86
2022/09/09 11:39:54;;;;;;;90.72;30.38;;;24.20;1.00;;;;;;4954911;28;20245;-86
2022/09/09 11:42:23;;;;;;;93.15;30.80;;;24.20;1.00;;;;;;4950955;28;20280;-86
2022/09/09 11:44:51;;;;;;;92.22;30.27;;;24.30;1.00;;;;;;4954720;28;20202;-87
2022/09/09 11:47:24;;;;;;;93.60;30.65;;;24.30;1.00;;;;;;4954723;28;20200;-86
2022/09/09 11:49:52;;;;;;;94.18;30.65;;;24.30;1.00;;;;;;4954769;28;20190;-87
2022/09/09 11:52:26;;;;;;;94.50;30.60;;;24.40;99.90;;;;;;4954676;28;20199;-86
2022/09/09 11:54:56;;;;;;;96.07;30.70;;;24.60;99.90;;;;;;4954619;28;20251;-86
2022/09/09 11:57:31;;;;;;;97.00;31.00;;;24.80;99.90;;;;;;4954575;28;20222;-87
2022/09/09 11:59:59;;;;;;;96.90;31.08;;;24.90;1.00;;;;;;4954905;28;20176;-86
2022/09/09 12:02:27;;;;;;;97.63;31.05;;;25.00;1.00;;;;;;4954477;28;20203;-86
2022/09/09 12:05:01;;;;;;;98.72;31.27;;;25.10;1.00;;;;;;4954196;28;20200;-86
2022/09/09 12:07:37;;;;;;;97.72;31.00;;;25.10;99.90;;;;;;4954506;28;20721;-86
2022/09/09 12:10:07;;;;;;;99.57;31.35;;;25.00;99.90;;;;;;4954630;28;20192;-87
2022/09/09 12:12:35;;;;;;;99.60;31.33;;;25.00;99.90;;;;;;4954524;28;20227;-86
2022/09/09 12:15:20;;;;;;;100.45;31.40;;;25.10;1.00;;;;;;4954309;28;20262;-87
2022/09/09 12:17:50;;;;;;;99.80;31.42;;;25.20;1.00;;;;;;4954458;28;20184;-86
2022/09/09 12:20:19;;;;;;;99.70;31.40;;;25.30;1.00;;;;;;4955294;28;20266;-87
2022/09/09 12:23:12;;;;;;;99.28;31.40;;;25.30;63.90;;;;;;4958390;28;20341;-87
2022/09/09 12:25:50;;;;;;;98.35;30.95;;;25.30;99.90;;;;;;4958173;28;20563;-87
2022/09/09 12:28:21;;;;;;;100.68;31.42;;;25.20;1.00;;;;;;4958471;28;20175;-87
2022/09/09 12:30:58;;;;;;;103.28;31.77;;;25.10;99.90;;;;;;4958398;28;20195;-87
2022/09/09 12:33:25;;;;;;;104.63;31.80;;;25.10;1.00;;;;;;4958000;28;20188;-87
2022/09/09 12:35:59;;;;;;;105.82;32.00;;;25.00;99.90;;;;;;4957948;28;20263;-87
2022/09/09 12:38:33;;;;;;;106.55;31.92;;;24.90;99.90;;;;;;4957880;28;20196;-86
2022/09/09 12:41:00;;;;;;;110.80;32.80;;;24.80;99.90;;;;;;4958462;28;20188;-86
2022/09/09 12:43:28;;;;;;;113.63;32.85;;;24.80;1.00;;;;;;4957962;28;20204;-86
2022/09/09 12:46:00;;;;;;;97.38;31.00;;;24.60;99.90;;;;;;4958026;28;20605;-86
2022/09/09 12:48:36;;;;;;;97.57;31.20;;;24.60;1.00;;;;;;4957808;28;20195;-87
2022/09/09 12:51:05;;;;;;;107.80;32.13;;;24.50;1.00;;;;;;4957849;28;20242;-87
2022/09/09 12:53:36;;;;;;;131.00;34.40;;;24.40;1.00;;;;;;4957958;28;20200;-86
2022/09/09 12:56:07;;;;;;;127.40;34.10;;;24.30;1.00;;;;;;4957482;28;20233;-87
2022/09/09 12:58:34;;;;;;;133.55;34.55;;;24.20;99.90;;;;;;4958035;28;20196;-87
2022/09/09 13:01:04;;;;;;;146.77;36.00;;;24.10;1.00;;;;;;4957756;28;20201;-87
2022/09/09 13:03:33;;;;;;;11.07;10.27;;;24.10;1.00;;;;;;4958500;28;20596;-87
2022/09/09 13:06:11;;;;;;;22.50;21.17;;;24.20;1.00;;;;;;4957763;28;20192;-87